Time;durP1;ratioP1;P1;durP2;ratioP2;P2;SDS_P1;SDS_P2;PMS_P1;PMS_P2;Temp;Humidity;BMP_temperature;BMP_pressure;BME280_temperature;BME280_humidity;BME280_pressure;Samples;Min_cycle;Max_cycle;Signal;HPM_P1;HPM_P2
2022/11/28 00:24:55;;;;;;;24.00;11.73;;;4.60;99.90;;;;;;5073527;22;20295;-86
2022/11/28 00:27:22;;;;;;;23.67;13.50;;;4.10;99.90;;;;;;5100811;28;20190;-85
2022/11/28 00:29:49;;;;;;;18.83;12.60;;;4.10;99.90;;;;;;5101326;28;20212;-85
2022/11/28 00:32:16;;;;;;;22.90;12.15;;;4.20;99.90;;;;;;5101134;28;20198;-85
2022/11/28 00:34:43;;;;;;;22.77;13.02;;;4.30;99.90;;;;;;5090373;28;20237;-85
2022/11/28 00:37:10;;;;;;;18.48;13.25;;;4.30;99.90;;;;;;5080639;28;20226;-86
2022/11/28 00:39:36;;;;;;;19.70;12.30;;;4.70;99.90;;;;;;5083747;28;20640;-86
2022/11/28 00:42:05;;;;;;;19.70;11.95;;;4.40;99.90;;;;;;5106440;28;20263;-85
2022/11/28 00:44:32;;;;;;;17.35;11.65;;;4.60;99.90;;;;;;5110311;28;20245;-86
2022/11/28 00:46:59;;;;;;;26.02;12.77;;;;;;;;;;5110521;28;20264;-86
2022/11/28 00:49:26;;;;;;;17.58;10.73;;;4.30;99.90;;;;;;5110351;28;20202;-86
2022/11/28 00:51:52;;;;;;;18.65;13.27;;;4.30;99.90;;;;;;5104240;28;20210;-85
2022/11/28 00:54:19;;;;;;;26.70;14.07;;;4.50;99.90;;;;;;5101544;28;20221;-85
2022/11/28 00:56:46;;;;;;;19.05;13.35;;;4.30;99.90;;;;;;5103294;28;20198;-85
2022/11/28 00:59:14;;;;;;;18.17;14.10;;;4.40;99.90;;;;;;5101527;28;20209;-85
2022/11/28 01:01:43;;;;;;;19.42;13.18;;;5.00;99.90;;;;;;5103557;28;20210;-85
2022/11/28 01:04:13;;;;;;;23.75;14.02;;;3.90;99.90;;;;;;5104973;28;20248;-84
2022/11/28 01:06:42;;;;;;;24.20;13.75;;;4.10;99.90;;;;;;5103882;28;20285;-85
2022/11/28 01:09:13;;;;;;;19.10;13.70;;;4.00;99.90;;;;;;5101548;28;20285;-85
2022/11/28 01:11:41;;;;;;;18.85;12.57;;;4.20;99.90;;;;;;5099172;28;20226;-86
2022/11/28 01:14:09;;;;;;;24.23;13.55;;;4.20;99.90;;;;;;5098942;28;20329;-85
2022/11/28 01:16:38;;;;;;;23.40;13.73;;;4.10;99.90;;;;;;5099391;28;20607;-86
2022/11/28 01:19:04;;;;;;;18.33;13.18;;;4.10;99.90;;;;;;5099175;28;20265;-86
2022/11/28 01:21:32;;;;;;;25.70;14.75;;;4.40;99.90;;;;;;5099252;28;20206;-86
2022/11/28 01:23:58;;;;;;;20.80;13.90;;;4.00;99.90;;;;;;5102214;28;20229;-85
2022/11/28 01:26:27;;;;;;;23.15;14.75;;;4.00;99.90;;;;;;5103733;28;20639;-85
2022/11/28 01:28:55;;;;;;;22.30;14.85;;;4.00;99.90;;;;;;5102455;28;20288;-85
2022/11/28 01:31:25;;;;;;;19.80;14.15;;;4.10;99.90;;;;;;5101727;28;20244;-85
2022/11/28 01:33:53;;;;;;;24.15;14.75;;;3.90;99.90;;;;;;5100994;28;20308;-85
2022/11/28 01:36:21;;;;;;;23.30;15.15;;;3.70;99.90;;;;;;5100107;28;20284;-85
2022/11/28 01:38:48;;;;;;;26.67;15.45;;;3.70;99.90;;;;;;5097922;28;20212;-86
2022/11/28 01:41:17;;;;;;;20.63;14.57;;;3.90;99.90;;;;;;5098041;28;20236;-85
2022/11/28 01:44:06;;;;;;;18.85;13.60;;;3.90;99.90;;;;;;5098068;28;20222;-86
2022/11/28 01:46:33;;;;;;;21.08;14.75;;;3.90;99.90;;;;;;5098630;28;20687;-86
2022/11/28 01:49:08;;;;;;;21.08;14.48;;;3.50;99.90;;;;;;5097664;28;20210;-86
2022/11/28 01:51:35;;;;;;;23.55;15.75;;;4.20;99.90;;;;;;5098209;28;20531;-86
2022/11/28 01:54:03;;;;;;;21.90;14.45;;;3.50;99.90;;;;;;5097549;28;20261;-86
2022/11/28 01:56:38;;;;;;;21.52;14.55;;;3.80;99.90;;;;;;5097874;28;20202;-86
2022/11/28 01:59:09;;;;;;;18.77;13.38;;;4.40;99.90;;;;;;5097381;28;20190;-86
2022/11/28 02:01:36;;;;;;;21.17;14.75;;;3.90;99.90;;;;;;5098141;28;20285;-86
2022/11/28 02:04:05;;;;;;;23.35;14.05;;;3.90;99.90;;;;;;5100162;28;20237;-86
2022/11/28 02:06:33;;;;;;;22.83;14.80;;;3.80;99.90;;;;;;5109480;28;20742;-85
2022/11/28 02:08:59;;;;;;;20.27;14.20;;;3.80;99.90;;;;;;5111460;28;20285;-86
2022/11/28 02:11:55;;;;;;;24.10;14.43;;;3.60;99.90;;;;;;5107210;28;20262;-85
2022/11/28 02:14:36;;;;;;;20.58;14.35;;;2.90;99.90;;;;;;5099157;28;20228;-85
2022/11/28 02:17:14;;;;;;;21.60;14.02;;;3.90;99.90;;;;;;5111949;28;20728;-85
2022/11/28 02:20:10;;;;;;;23.42;14.10;;;4.00;99.90;;;;;;5117025;28;20559;-86
2022/11/28 02:22:44;;;;;;;24.73;14.60;;;4.10;99.90;;;;;;5066250;28;20222;-85
2022/11/28 02:25:34;;;;;;;18.20;13.55;;;3.80;99.90;;;;;;5114534;28;20294;-86
2022/11/28 02:28:28;;;;;;;18.55;13.10;;;4.00;99.90;;;;;;5104389;28;20186;-86
2022/11/28 02:31:15;;;;;;;20.30;12.65;;;3.60;99.90;;;;;;5114762;28;20172;-84
2022/11/28 02:33:47;;;;;;;21.05;13.05;;;3.80;99.90;;;;;;5119505;28;20205;-85
2022/11/28 02:36:18;;;;;;;21.60;13.10;;;3.50;99.90;;;;;;5119633;28;20229;-84
2022/11/28 02:38:58;;;;;;;17.50;12.60;;;3.70;99.90;;;;;;5119663;28;20170;-84
2022/11/28 02:41:33;;;;;;;19.13;13.63;;;3.70;99.90;;;;;;5119667;28;20170;-84
2022/11/28 02:44:08;;;;;;;17.77;12.60;;;3.60;99.90;;;;;;5119309;28;20221;-83
2022/11/28 02:46:46;;;;;;;21.05;12.18;;;3.60;99.90;;;;;;5119313;28;20224;-84
2022/11/28 02:49:21;;;;;;;15.13;11.70;;;4.00;99.90;;;;;;5116057;28;20170;-85
2022/11/28 02:51:52;;;;;;;16.58;11.90;;;3.90;99.90;;;;;;5115506;28;20206;-85
2022/11/28 02:54:21;;;;;;;19.38;11.55;;;3.70;99.90;;;;;;5116833;28;20252;-84
2022/11/28 02:56:50;;;;;;;19.05;11.50;;;3.70;99.90;;;;;;5115682;28;20198;-86
2022/11/28 02:59:32;;;;;;;20.85;13.68;;;3.70;99.90;;;;;;5114314;28;20739;-85
2022/11/28 03:02:01;;;;;;;18.30;12.85;;;3.70;99.90;;;;;;5116362;28;20209;-85
2022/11/28 03:04:38;;;;;;;17.25;12.82;;;3.70;99.90;;;;;;5116003;28;20222;-84
2022/11/28 03:07:13;;;;;;;16.65;11.35;;;3.70;99.90;;;;;;5117296;28;20214;-84
2022/11/28 03:09:59;;;;;;;17.63;12.15;;;3.70;99.90;;;;;;5110922;28;20188;-85
2022/11/28 03:12:36;;;;;;;19.88;12.27;;;3.50;99.90;;;;;;5110219;28;20209;-85
2022/11/28 03:15:06;;;;;;;20.40;12.23;;;3.70;99.90;;;;;;5113718;28;20225;-85
2022/11/28 03:17:41;;;;;;;19.77;13.40;;;3.60;99.90;;;;;;5108313;28;20232;-84
2022/11/28 03:20:22;;;;;;;22.83;12.25;;;4.30;99.90;;;;;;5100650;28;20212;-86
2022/11/28 03:23:01;;;;;;;20.33;13.15;;;3.70;99.90;;;;;;5097929;28;20186;-85
2022/11/28 03:25:33;;;;;;;19.20;12.95;;;3.80;99.90;;;;;;5110673;28;20245;-85
2022/11/28 03:28:06;;;;;;;20.88;12.25;;;3.70;99.90;;;;;;5114531;28;20218;-85
2022/11/28 03:30:39;;;;;;;19.58;12.85;;;3.70;99.90;;;;;;5104154;28;20250;-85
2022/11/28 03:33:07;;;;;;;20.75;12.52;;;3.40;99.90;;;;;;5113728;28;20210;-85
2022/11/28 03:35:43;;;;;;;20.58;11.88;;;3.60;99.90;;;;;;5115700;28;20226;-85
2022/11/28 03:38:17;;;;;;;20.42;12.40;;;3.90;99.90;;;;;;5110914;28;20203;-85
2022/11/28 03:40:49;;;;;;;18.02;13.43;;;3.60;99.90;;;;;;5101110;28;20255;-86
2022/11/28 03:43:21;;;;;;;22.67;12.63;;;3.70;99.90;;;;;;5100213;28;20193;-85
2022/11/28 03:45:51;;;;;;;19.02;12.82;;;3.70;99.90;;;;;;5099059;28;20190;-86
2022/11/28 03:48:24;;;;;;;23.58;12.50;;;3.70;99.90;;;;;;5099603;28;20225;-86
2022/11/28 03:50:59;;;;;;;22.30;12.70;;;3.60;99.90;;;;;;5097148;28;20202;-86
2022/11/28 03:53:31;;;;;;;24.73;12.68;;;3.60;99.90;;;;;;5096695;28;20236;-86
2022/11/28 03:56:04;;;;;;;22.15;13.60;;;3.50;99.90;;;;;;5096270;28;20297;-86
2022/11/28 03:58:36;;;;;;;21.05;12.98;;;3.70;99.90;;;;;;5097152;28;20216;-86
2022/11/28 04:01:09;;;;;;;21.02;12.80;;;4.00;99.90;;;;;;5096850;28;20191;-86
2022/11/28 04:03:45;;;;;;;22.15;14.02;;;3.40;99.90;;;;;;5096435;28;20269;-86
2022/11/28 04:06:19;;;;;;;26.17;13.10;;;3.60;99.90;;;;;;5096633;28;20304;-86
2022/11/28 04:08:52;;;;;;;23.13;16.13;;;3.90;99.90;;;;;;5096311;28;20201;-86
2022/11/28 04:11:22;;;;;;;20.25;14.43;;;3.60;99.90;;;;;;5097438;28;20217;-86
2022/11/28 04:13:55;;;;;;;19.50;11.68;;;3.50;99.90;;;;;;5096675;28;20327;-86
2022/11/28 04:16:31;;;;;;;19.95;12.27;;;3.60;99.90;;;;;;5098942;28;20202;-85
2022/11/28 04:19:05;;;;;;;25.17;13.93;;;3.50;99.90;;;;;;5104616;28;20202;-85
2022/11/28 04:21:38;;;;;;;27.77;14.43;;;3.60;99.90;;;;;;5106860;28;20242;-86
2022/11/28 04:24:10;;;;;;;22.20;14.80;;;3.50;99.90;;;;;;5113984;28;20230;-85
2022/11/28 04:26:43;;;;;;;25.80;13.98;;;3.60;99.90;;;;;;5109500;28;20276;-86
2022/11/28 04:29:14;;;;;;;23.00;13.55;;;3.40;99.90;;;;;;5097845;28;20198;-86
2022/11/28 04:31:44;;;;;;;23.00;15.00;;;3.40;99.90;;;;;;5097285;28;20202;-86
2022/11/28 04:34:17;;;;;;;21.83;12.52;;;3.80;99.90;;;;;;5103885;28;20312;-86
2022/11/28 04:36:48;;;;;;;25.65;15.30;;;3.70;99.90;;;;;;5100720;28;20213;-86
2022/11/28 04:39:19;;;;;;;21.85;13.82;;;3.50;99.90;;;;;;5100665;28;20194;-86
2022/11/28 04:41:51;;;;;;;21.35;13.50;;;3.40;99.90;;;;;;5101021;28;20182;-86
2022/11/28 04:44:25;;;;;;;20.58;13.00;;;3.50;99.90;;;;;;5100141;28;20806;-85
2022/11/28 04:46:54;;;;;;;21.65;12.70;;;3.50;99.90;;;;;;5099366;28;20301;-86
2022/11/28 04:49:23;;;;;;;24.25;14.63;;;3.40;99.90;;;;;;5099671;28;20237;-86
2022/11/28 04:52:00;;;;;;;23.55;13.68;;;4.10;99.90;;;;;;5101754;28;20235;-85
2022/11/28 04:54:32;;;;;;;26.27;16.15;;;3.60;99.90;;;;;;5104550;28;20226;-85
2022/11/28 04:57:03;;;;;;;24.90;15.27;;;3.70;99.90;;;;;;5104351;28;20194;-85
2022/11/28 04:59:32;;;;;;;23.80;14.98;;;3.80;99.90;;;;;;5104035;28;20205;-85
2022/11/28 05:02:04;;;;;;;25.48;14.00;;;3.30;99.90;;;;;;5102395;28;20202;-85
2022/11/28 05:04:35;;;;;;;23.30;14.52;;;3.90;99.90;;;;;;5099657;28;20494;-86
2022/11/28 05:07:11;;;;;;;26.67;14.10;;;3.70;99.90;;;;;;5099242;28;20217;-86
2022/11/28 05:09:39;;;;;;;22.75;13.35;;;3.70;99.90;;;;;;5050362;28;20221;-86
2022/11/28 05:12:08;;;;;;;23.05;14.85;;;3.80;99.90;;;;;;5100249;28;20664;-86
2022/11/28 05:14:35;;;;;;;23.67;14.30;;;3.80;99.90;;;;;;5100527;28;20275;-87
2022/11/28 05:17:02;;;;;;;22.70;13.90;;;3.60;99.90;;;;;;5098781;28;20205;-87
2022/11/28 05:19:32;;;;;;;23.65;14.48;;;3.60;99.90;;;;;;5099270;28;20205;-85
2022/11/28 05:21:59;;;;;;;29.17;13.30;;;3.70;99.90;;;;;;5098682;28;20209;-87
2022/11/28 05:24:27;;;;;;;21.20;13.55;;;4.10;99.90;;;;;;5099808;28;20242;-86
2022/11/28 05:26:54;;;;;;;26.48;13.98;;;4.00;99.90;;;;;;5100253;28;20225;-86
2022/11/28 05:29:23;;;;;;;20.65;13.30;;;3.50;99.90;;;;;;5099622;28;20217;-86
2022/11/28 05:31:50;;;;;;;25.20;13.00;;;4.00;99.90;;;;;;5103809;28;20217;-86
2022/11/28 05:34:17;;;;;;;23.05;12.88;;;3.70;99.90;;;;;;5119577;28;20206;-85
2022/11/28 05:36:45;;;;;;;22.77;12.30;;;3.90;99.90;;;;;;5120206;28;20190;-86
2022/11/28 05:39:12;;;;;;;27.15;14.20;;;3.90;99.90;;;;;;5111426;28;20537;-86
2022/11/28 05:41:41;;;;;;;21.08;12.30;;;3.40;99.90;;;;;;5099461;28;20206;-87
2022/11/28 05:44:12;;;;;;;28.27;14.88;;;4.00;99.90;;;;;;5098047;28;20280;-85
2022/11/28 05:46:39;;;;;;;26.15;14.48;;;4.40;99.90;;;;;;5098808;28;20217;-86
2022/11/28 05:49:07;;;;;;;23.55;14.30;;;3.70;99.90;;;;;;5098678;28;20263;-86
2022/11/28 05:51:34;;;;;;;24.70;15.00;;;3.90;99.90;;;;;;5098649;28;20548;-86
2022/11/28 05:54:01;;;;;;;21.55;13.40;;;3.90;99.90;;;;;;5098625;28;20504;-87
2022/11/28 05:56:28;;;;;;;29.65;13.73;;;3.70;99.90;;;;;;5100002;28;20209;-87
2022/11/28 05:58:57;;;;;;;21.40;12.88;;;3.50;99.90;;;;;;5097983;28;20552;-86
2022/11/28 06:01:27;;;;;;;31.05;13.13;;;3.70;99.90;;;;;;5099856;28;20209;-86
2022/11/28 06:03:59;;;;;;;28.63;15.93;;;3.30;99.90;;;;;;5101896;28;20225;-85
2022/11/28 06:06:28;;;;;;;20.95;14.02;;;4.50;99.90;;;;;;5102345;28;20202;-85
2022/11/28 06:08:57;;;;;;;23.90;13.25;;;3.80;99.90;;;;;;5101158;28;20202;-85
2022/11/28 06:11:26;;;;;;;29.90;14.52;;;3.70;99.90;;;;;;5102744;28;20198;-84
2022/11/28 06:13:53;;;;;;;19.67;12.95;;;3.60;99.90;;;;;;5101945;28;20218;-85
2022/11/28 06:16:24;;;;;;;25.00;13.93;;;3.80;99.90;;;;;;5102512;28;20255;-84
2022/11/28 06:18:55;;;;;;;30.67;14.30;;;3.80;99.90;;;;;;5102550;28;20186;-84
2022/11/28 06:21:23;;;;;;;28.15;14.85;;;4.30;99.90;;;;;;5102444;28;20648;-85
2022/11/28 06:23:51;;;;;;;24.83;14.98;;;3.90;99.90;;;;;;5110772;28;20210;-84
2022/11/28 06:26:21;;;;;;;24.25;13.88;;;3.70;99.90;;;;;;5119950;28;20217;-85
2022/11/28 06:28:48;;;;;;;24.63;12.90;;;3.40;99.90;;;;;;5119466;28;20245;-85
2022/11/28 06:31:18;;;;;;;26.02;13.10;;;3.40;99.90;;;;;;5119538;28;20185;-85
2022/11/28 06:33:48;;;;;;;27.30;15.65;;;3.70;99.90;;;;;;5119165;28;20667;-84
2022/11/28 06:36:17;;;;;;;27.77;14.68;;;3.80;99.90;;;;;;5119754;28;20182;-87
2022/11/28 06:38:46;;;;;;;24.35;13.50;;;3.60;99.90;;;;;;5114407;28;20203;-86
2022/11/28 06:41:16;;;;;;;26.65;15.48;;;4.10;99.90;;;;;;5106462;28;20209;-85
2022/11/28 06:43:45;;;;;;;28.17;16.92;;;3.30;99.90;;;;;;5116806;28;20278;-85
2022/11/28 06:46:13;;;;;;;28.80;15.13;;;3.90;99.90;;;;;;5101243;28;20208;-86
2022/11/28 06:48:44;;;;;;;28.80;13.85;;;3.80;99.90;;;;;;5098840;28;20214;-85
2022/11/28 06:51:19;;;;;;;24.05;14.35;;;3.80;99.90;;;;;;5100768;28;20226;-85
2022/11/28 06:53:46;;;;;;;24.67;14.68;;;3.30;99.90;;;;;;5102591;28;20231;-85
2022/11/28 06:56:19;;;;;;;22.55;15.40;;;4.00;99.90;;;;;;5099450;28;20285;-86
2022/11/28 06:58:47;;;;;;;29.27;16.75;;;3.60;99.90;;;;;;5104383;28;20197;-85
2022/11/28 07:01:17;;;;;;;24.00;13.70;;;3.80;99.90;;;;;;5106415;28;20206;-85
2022/11/28 08:07:02;;;;;;;24.55;14.60;;;;;;;;;;4846474;29;20235;-88
2022/11/28 08:09:29;;;;;;;34.28;15.52;;;;;;;;;;4901341;29;20193;-88
2022/11/28 08:11:58;;;;;;;25.38;14.77;;;;;;;;;;5051736;28;20218;-88
2022/11/28 08:14:25;;;;;;;32.65;16.83;;;;;;;;;;5121175;28;20312;-88
2022/11/28 08:17:04;;;;;;;26.63;15.05;;;;;;;;;;5140102;28;20185;-89
2022/11/28 08:19:31;;;;;;;28.05;17.85;;;;;;;;;;5141422;28;20169;-91
2022/11/28 08:22:04;;;;;;;26.08;15.35;;;;;;;;;;5141258;28;20201;-88
2022/11/28 08:24:31;;;;;;;28.92;16.63;;;;;;;;;;5137201;28;20217;-87
2022/11/28 08:26:59;;;;;;;27.85;15.55;;;;;;;;;;5136409;28;20216;-88
2022/11/28 08:29:26;;;;;;;29.02;15.95;;;;;;;;;;5126060;28;20307;-88
2022/11/28 08:31:55;;;;;;;24.85;16.00;;;;;;;;;;5123597;28;20667;-87
2022/11/28 08:34:22;;;;;;;24.90;16.45;;;;;;;;;;5122973;28;20217;-88
2022/11/28 08:36:51;;;;;;;34.47;17.25;;;;;;;;;;5121923;28;20211;-88
2022/11/28 08:39:20;;;;;;;29.80;17.50;;;;;;;;;;5122542;28;20223;-88
2022/11/28 08:42:00;;;;;;;30.20;16.48;;;;;;;;;;5122315;28;20205;-87
2022/11/28 08:44:32;;;;;;;27.75;16.00;;;;;;;;;;5131707;28;20240;-87
2022/11/28 08:47:01;;;;;;;38.58;16.63;;;;;;;;;;5140204;28;20185;-87
2022/11/28 08:52:15;;;;;;;32.40;16.58;;;;;;;;;;5130252;28;20197;-87
2022/11/28 08:54:50;;;;;;;31.73;15.95;;;;;;;;;;5131278;28;20236;-88
2022/11/28 08:57:18;;;;;;;29.73;16.02;;;;;;;;;;5121400;28;20201;-87
2022/11/28 09:00:01;;;;;;;29.75;15.93;;;;;;;;;;5121162;28;20205;-88
2022/11/28 09:02:38;;;;;;;33.08;15.68;;;;;;;;;;5129948;28;20190;-88
2022/11/28 09:05:05;;;;;;;29.38;18.27;;;;;;;;;;5137067;28;20641;-88
2022/11/28 09:07:32;;;;;;;28.03;15.43;;;4.20;99.90;;;;;;5081718;28;1310345;-88
2022/11/28 09:10:04;;;;;;;29.02;15.57;;;4.50;99.90;;;;;;5123446;28;20232;-88
2022/11/28 09:12:32;;;;;;;24.52;15.18;;;4.30;99.90;;;;;;5122741;28;20228;-87
2022/11/28 09:14:59;;;;;;;26.60;16.50;;;4.40;99.90;;;;;;5122489;28;20303;-88
2022/11/28 09:17:29;;;;;;;29.80;16.73;;;;;;;;;;5126440;28;20204;-88
2022/11/28 09:19:56;;;;;;;27.45;16.80;;;4.50;99.90;;;;;;5124348;28;20616;-87
2022/11/28 09:22:23;;;;;;;30.33;16.17;;;4.50;99.90;;;;;;5125288;28;20201;-87
2022/11/28 09:24:51;;;;;;;33.08;16.20;;;4.30;99.90;;;;;;5124120;28;20647;-87
2022/11/28 09:27:19;;;;;;;33.83;17.95;;;4.30;99.90;;;;;;5124124;28;20209;-87
2022/11/28 09:29:47;;;;;;;24.20;15.88;;;4.10;99.90;;;;;;5123618;28;20205;-87
2022/11/28 09:32:14;;;;;;;29.20;17.33;;;5.20;99.90;;;;;;5123713;28;20215;-87
2022/11/28 09:34:41;;;;;;;29.42;16.65;;;4.40;97.80;;;;;;5125390;28;20285;-88
2022/11/28 09:37:08;;;;;;;29.75;15.27;;;4.10;99.90;;;;;;5136632;27;20197;-87
2022/11/28 09:39:36;;;;;;;29.17;17.40;;;;;;;;;;5133481;28;20205;-87
2022/11/28 09:42:12;;;;;;;33.03;17.35;;;4.30;97.10;;;;;;5136047;28;20273;-87
2022/11/28 09:44:46;;;;;;;24.38;15.27;;;5.00;57.20;;;;;;5138039;28;20284;-87
2022/11/28 09:47:20;;;;;;;28.63;17.38;;;4.60;1.00;;;;;;5140979;27;20166;-88
2022/11/28 09:49:52;;;;;;;27.45;16.30;;;4.60;28.40;;;;;;5140218;27;20423;-90
2022/11/28 09:52:28;;;;;;;26.25;15.93;;;4.80;3.70;;;;;;5140939;27;20180;-89
2022/11/28 09:55:03;;;;;;;30.98;16.58;;;4.80;3.30;;;;;;5140837;27;20208;-89
2022/11/28 09:57:35;;;;;;;27.08;17.17;;;5.10;41.60;;;;;;5140744;27;20203;-88
2022/11/28 10:00:05;;;;;;;28.67;16.10;;;4.90;1.00;;;;;;5140578;27;20208;-88
2022/11/28 10:02:39;;;;;;;26.88;16.65;;;4.70;1.00;;;;;;5128797;27;20190;-87
2022/11/28 10:05:17;;;;;;;29.00;16.60;;;4.80;1.00;;;;;;5122936;28;20268;-87
2022/11/28 10:07:56;;;;;;;29.20;16.50;;;4.80;1.00;;;;;;5121653;28;20252;-87
2022/11/28 10:10:32;;;;;;;31.23;17.80;;;4.60;1.00;;;;;;5120977;28;20254;-87
2022/11/28 10:13:07;;;;;;;32.10;18.33;;;4.80;1.00;;;;;;5123075;28;20582;-87
2022/11/28 10:15:43;;;;;;;33.95;17.15;;;4.80;1.00;;;;;;5124740;28;20240;-87
2022/11/28 10:18:25;;;;;;;28.67;18.13;;;4.60;1.00;;;;;;5122327;28;20193;-87
2022/11/28 10:20:59;;;;;;;27.15;15.82;;;4.90;1.00;;;;;;5123712;28;20295;-87
2022/11/28 10:23:30;;;;;;;36.78;16.58;;;4.90;1.00;;;;;;5123615;28;20555;-88
2022/11/28 10:26:00;;;;;;;27.98;16.73;;;5.00;1.00;;;;;;5122770;28;20196;-87
2022/11/28 10:28:32;;;;;;;27.88;15.95;;;5.30;1.00;;;;;;5121239;28;20225;-87
2022/11/28 10:31:05;;;;;;;34.75;16.58;;;5.00;1.00;;;;;;5120977;28;20193;-87
2022/11/28 10:33:39;;;;;;;33.42;18.25;;;5.10;1.00;;;;;;5136458;27;20218;-88
2022/11/28 10:36:10;;;;;;;33.22;17.02;;;4.80;1.00;;;;;;5139829;27;20182;-89
2022/11/28 10:38:41;;;;;;;27.83;16.33;;;5.00;1.00;;;;;;5140215;27;20185;-88
2022/11/28 10:41:14;;;;;;;31.50;17.10;;;5.10;1.00;;;;;;5124697;28;20209;-87
2022/11/28 10:43:45;;;;;;;29.30;16.73;;;5.00;1.00;;;;;;5119458;28;20233;-87
2022/11/28 10:46:50;;;;;;;26.02;16.17;;;5.10;1.00;;;;;;5120118;28;20220;-87
2022/11/28 10:49:30;;;;;;;32.70;16.85;;;5.10;1.00;;;;;;5109184;28;20217;-87
2022/11/28 10:52:08;;;;;;;30.73;16.42;;;5.40;1.00;;;;;;5119687;28;20228;-88
2022/11/28 10:55:04;;;;;;;31.13;16.88;;;5.10;1.00;;;;;;5118648;28;20232;-87
2022/11/28 10:57:39;;;;;;;32.80;16.05;;;5.30;1.00;;;;;;5120241;28;20213;-87
2022/11/28 11:00:11;;;;;;;28.17;15.98;;;5.20;1.00;;;;;;5122004;28;20269;-86
2022/11/28 11:02:45;;;;;;;28.58;17.90;;;5.20;1.00;;;;;;5076275;28;20192;-87
2022/11/28 11:05:14;;;;;;;27.40;15.40;;;5.50;1.00;;;;;;5123490;28;20228;-87
2022/11/28 11:07:48;;;;;;;27.10;15.70;;;4.90;1.00;;;;;;5121588;28;20209;-87
2022/11/28 11:10:18;;;;;;;28.40;16.15;;;4.90;1.00;;;;;;5122735;28;20277;-87
2022/11/28 11:12:46;;;;;;;34.38;17.13;;;5.00;1.00;;;;;;5123692;28;20582;-87
2022/11/28 11:15:20;;;;;;;24.73;15.25;;;5.10;1.00;;;;;;5118609;28;20224;-87
2022/11/28 11:17:50;;;;;;;26.52;15.32;;;5.50;1.00;;;;;;5118570;28;20182;-87
2022/11/28 11:20:34;;;;;;;27.00;16.15;;;5.30;99.90;;;;;;5119396;28;20196;-88
2022/11/28 11:23:03;;;;;;;31.52;16.95;;;5.70;1.00;;;;;;5124427;28;20216;-87
2022/11/28 11:25:32;;;;;;;25.30;16.38;;;5.50;1.00;;;;;;5132777;28;20235;-88
2022/11/28 11:28:03;;;;;;;34.35;17.38;;;5.60;1.00;;;;;;5137132;27;20221;-87
2022/11/28 11:30:33;;;;;;;25.38;13.85;;;5.30;99.90;;;;;;5138503;28;20181;-87
2022/11/28 11:33:04;;;;;;;27.98;15.32;;;5.40;1.00;;;;;;5137490;27;20181;-88
2022/11/28 11:35:42;;;;;;;23.60;14.63;;;5.50;99.90;;;;;;5136887;28;20228;-87
2022/11/28 11:38:18;;;;;;;32.42;16.70;;;5.90;1.00;;;;;;5135120;28;20185;-86
2022/11/28 11:40:45;;;;;;;28.75;16.25;;;5.70;99.90;;;;;;5127447;28;20197;-87
2022/11/28 11:43:27;;;;;;;37.80;16.50;;;5.60;99.90;;;;;;5120730;28;20205;-88
2022/11/28 11:46:09;;;;;;;23.85;14.85;;;5.50;99.90;;;;;;5123000;28;20182;-88
2022/11/28 11:48:39;;;;;;;28.30;15.55;;;5.40;99.90;;;;;;5122284;28;20221;-88
2022/11/28 11:51:08;;;;;;;28.45;17.42;;;5.60;99.90;;;;;;5124495;28;20208;-87
2022/11/28 11:53:35;;;;;;;28.27;17.33;;;5.50;99.90;;;;;;5123658;28;20201;-87
2022/11/28 11:56:04;;;;;;;23.77;15.68;;;5.60;99.90;;;;;;5124084;28;20638;-87
2022/11/28 11:58:39;;;;;;;27.17;16.38;;;5.50;99.90;;;;;;5123883;28;20204;-88
2022/11/28 12:01:07;;;;;;;21.50;13.30;;;5.60;99.90;;;;;;5123479;28;20218;-88
2022/11/28 12:03:41;;;;;;;25.30;15.60;;;5.40;99.90;;;;;;5124427;28;20215;-88
2022/11/28 12:06:15;;;;;;;27.63;15.52;;;5.40;99.90;;;;;;5123338;28;20269;-88
2022/11/28 12:08:47;;;;;;;29.45;16.38;;;5.60;99.90;;;;;;5122179;28;20236;-88
2022/11/28 12:11:19;;;;;;;29.88;17.13;;;5.60;99.90;;;;;;5123525;28;20201;-88
2022/11/28 12:13:46;;;;;;;24.10;15.18;;;6.20;99.90;;;;;;5123177;28;20289;-88
2022/11/28 12:16:49;;;;;;;26.48;14.70;;;5.50;99.90;;;;;;5121210;28;20205;-88
2022/11/28 12:19:25;;;;;;;22.48;16.23;;;5.80;99.90;;;;;;5059244;28;20202;-88
2022/11/28 12:22:05;;;;;;;25.48;16.08;;;5.80;99.90;;;;;;5113262;28;20217;-88
2022/11/28 12:24:41;;;;;;;32.08;16.58;;;5.90;99.90;;;;;;5122466;28;20268;-88
2022/11/28 12:27:18;;;;;;;27.33;14.90;;;5.90;99.90;;;;;;5122463;28;20621;-88
2022/11/28 12:29:53;;;;;;;26.73;14.23;;;5.90;99.90;;;;;;5079040;28;20236;-88
2022/11/28 12:32:36;;;;;;;25.63;14.73;;;6.00;86.70;;;;;;5121155;28;20197;-88
2022/11/28 12:35:18;;;;;;;20.70;13.13;;;5.90;99.90;;;;;;5121961;28;20674;-88
2022/11/28 12:37:52;;;;;;;28.27;16.05;;;5.90;99.90;;;;;;5122349;28;20258;-88
2022/11/28 12:40:35;;;;;;;18.02;13.73;;;6.10;99.90;;;;;;5121789;28;20185;-88
2022/11/28 12:43:13;;;;;;;24.20;14.23;;;6.00;99.90;;;;;;5125315;28;20276;-88
2022/11/28 12:45:47;;;;;;;24.38;15.77;;;6.10;99.90;;;;;;5121409;28;20228;-88
2022/11/28 12:48:32;;;;;;;24.63;14.90;;;6.00;90.40;;;;;;5130412;28;20585;-88
2022/11/28 12:51:07;;;;;;;20.48;13.20;;;6.00;23.00;;;;;;5120683;28;20197;-88
2022/11/28 12:53:55;;;;;;;27.67;14.95;;;6.40;99.90;;;;;;5120757;28;20200;-87
2022/11/28 12:56:34;;;;;;;25.17;14.05;;;6.10;53.00;;;;;;5120608;28;20225;-87
2022/11/28 12:59:09;;;;;;;23.45;13.63;;;6.30;99.90;;;;;;5120447;28;20227;-87
2022/11/28 13:01:52;;;;;;;21.63;15.50;;;5.90;99.10;;;;;;5121168;28;20236;-87
2022/11/28 13:04:40;;;;;;;27.17;15.38;;;5.90;99.90;;;;;;5120660;28;20244;-87
2022/11/28 13:07:17;;;;;;;26.63;14.40;;;6.00;99.90;;;;;;5120103;28;20233;-87
2022/11/28 13:09:58;;;;;;;24.15;15.98;;;6.00;99.90;;;;;;5120607;28;20292;-87
2022/11/28 13:12:36;;;;;;;29.58;16.27;;;6.00;99.90;;;;;;5131186;28;20240;-87
2022/11/28 13:15:09;;;;;;;26.58;16.08;;;5.90;99.90;;;;;;5137065;28;20229;-87
2022/11/28 13:17:43;;;;;;;29.95;16.17;;;5.90;99.90;;;;;;5141357;27;20182;-89
2022/11/28 13:20:22;;;;;;;26.70;15.80;;;5.80;99.90;;;;;;5141643;27;20204;-88
2022/11/28 13:23:03;;;;;;;25.23;15.70;;;5.90;99.90;;;;;;5141812;27;20185;-89
2022/11/28 13:25:38;;;;;;;25.30;16.05;;;5.90;99.90;;;;;;5141657;27;20201;-88
2022/11/28 13:28:17;;;;;;;28.75;15.55;;;5.80;99.90;;;;;;5135197;27;20265;-87
2022/11/28 13:30:50;;;;;;;27.25;16.17;;;5.40;99.90;;;;;;5136617;28;20257;-87
2022/11/28 13:33:31;;;;;;;23.63;14.63;;;5.70;99.90;;;;;;5132175;28;20250;-87
2022/11/28 13:35:59;;;;;;;27.10;15.52;;;5.90;1.00;;;;;;5123999;28;20201;-87
2022/11/28 13:38:36;;;;;;;29.25;17.50;;;5.80;99.90;;;;;;5124562;28;20201;-87
2022/11/28 13:41:10;;;;;;;29.42;16.40;;;5.80;99.90;;;;;;5123608;28;20270;-87
2022/11/28 13:43:45;;;;;;;24.30;16.30;;;5.20;1.00;;;;;;5135852;28;20220;-87
2022/11/28 13:46:12;;;;;;;26.45;16.48;;;6.00;99.90;;;;;;5126076;28;20279;-87
2022/11/28 13:48:59;;;;;;;29.85;15.82;;;5.30;1.00;;;;;;5121613;28;20288;-87
2022/11/28 13:51:28;;;;;;;25.63;16.92;;;5.60;99.90;;;;;;5132187;28;20197;-87
2022/11/28 13:54:34;;;;;;;41.05;24.17;;;5.70;99.90;;;;;;5133327;28;20217;-87
2022/11/28 13:57:10;;;;;;;29.20;16.95;;;5.70;1.00;;;;;;5127224;28;20197;-87
2022/11/28 13:59:38;;;;;;;31.63;17.10;;;5.30;99.90;;;;;;5134012;28;20225;-87
2022/11/28 14:02:19;;;;;;;29.60;16.95;;;5.60;1.00;;;;;;5132667;28;20201;-86
2022/11/28 14:04:46;;;;;;;24.90;15.35;;;5.60;1.00;;;;;;5122332;28;20278;-87
2022/11/28 14:07:24;;;;;;;30.70;17.38;;;5.50;1.00;;;;;;5119527;28;20209;-87
2022/11/28 14:10:04;;;;;;;29.00;16.70;;;5.50;1.00;;;;;;5119861;28;20323;-87
2022/11/28 14:12:38;;;;;;;26.92;18.42;;;5.60;1.00;;;;;;5119468;28;20224;-87
2022/11/28 14:15:22;;;;;;;31.77;17.20;;;5.50;1.00;;;;;;5134719;28;20248;-87
2022/11/28 14:18:05;;;;;;;27.35;16.73;;;5.50;1.00;;;;;;5138607;27;20200;-87
2022/11/28 14:20:39;;;;;;;35.15;20.27;;;5.50;1.00;;;;;;5138237;28;20205;-86
2022/11/28 14:23:20;;;;;;;36.22;22.58;;;5.50;1.00;;;;;;5132859;28;20570;-87
2022/11/28 14:25:52;;;;;;;38.63;23.90;;;5.20;1.00;;;;;;5132458;28;20201;-88
2022/11/28 14:28:24;;;;;;;44.30;23.58;;;5.50;1.00;;;;;;5137629;28;20197;-87
2022/11/28 14:30:52;;;;;;;41.45;22.17;;;5.40;1.00;;;;;;5139283;28;20212;-88
2022/11/28 14:33:23;;;;;;;33.45;19.95;;;5.60;1.00;;;;;;5139201;27;20181;-88
2022/11/28 14:36:23;;;;;;;41.33;20.65;;;5.30;1.00;;;;;;5137712;27;20180;-87
2022/11/28 14:39:30;;;;;;;39.38;21.52;;;5.00;9.50;;;;;;5137785;28;20223;-87
2022/11/28 14:42:34;;;;;;;38.78;20.10;;;5.20;1.00;;;;;;5126401;28;20584;-87
2022/11/28 14:45:03;;;;;;;32.70;18.90;;;5.20;1.00;;;;;;5122583;28;20730;-87